sensor_id;sensor_type;location;lat;lon;timestamp;P1;durP1;ratioP1;P2;durP2;ratioP2
14754;SDS011;7469;50.906;6.952;2023-04-01T00:00:48;0.53;;;0.30;;
14754;SDS011;7469;50.906;6.952;2023-04-01T00:03:17;1.07;;;0.40;;
14754;SDS011;7469;50.906;6.952;2023-04-01T00:05:46;0.50;;;0.50;;
14754;SDS011;7469;50.906;6.952;2023-04-01T00:08:14;0.73;;;0.50;;
14754;SDS011;7469;50.906;6.952;2023-04-01T00:10:42;1.23;;;0.30;;
14754;SDS011;7469;50.906;6.952;2023-04-01T00:13:10;0.27;;;0.23;;
14754;SDS011;7469;50.906;6.952;2023-04-01T00:15:40;0.87;;;0.33;;
14754;SDS011;7469;50.906;6.952;2023-04-01T00:18:08;0.57;;;0.20;;
14754;SDS011;7469;50.906;6.952;2023-04-01T00:20:36;1.03;;;0.50;;
14754;SDS011;7469;50.906;6.952;2023-04-01T00:23:06;0.13;;;0.10;;
14754;SDS011;7469;50.906;6.952;2023-04-01T00:25:34;3.60;;;0.47;;
14754;SDS011;7469;50.906;6.952;2023-04-01T00:28:02;0.93;;;0.40;;
14754;SDS011;7469;50.906;6.952;2023-04-01T00:30:30;0.17;;;0.10;;
14754;SDS011;7469;50.906;6.952;2023-04-01T00:32:58;0.70;;;0.43;;
14754;SDS011;7469;50.906;6.952;2023-04-01T00:35:26;3.00;;;0.40;;
14754;SDS011;7469;50.906;6.952;2023-04-01T00:37:54;0.67;;;0.40;;
14754;SDS011;7469;50.906;6.952;2023-04-01T00:40:26;0.70;;;0.27;;
14754;SDS011;7469;50.906;6.952;2023-04-01T00:42:56;0.43;;;0.20;;
14754;SDS011;7469;50.906;6.952;2023-04-01T00:45:26;0.60;;;0.60;;
14754;SDS011;7469;50.906;6.952;2023-04-01T00:48:01;0.37;;;0.30;;
14754;SDS011;7469;50.906;6.952;2023-04-01T00:50:33;1.30;;;0.47;;
14754;SDS011;7469;50.906;6.952;2023-04-01T00:53:02;0.20;;;0.20;;
14754;SDS011;7469;50.906;6.952;2023-04-01T00:55:35;0.80;;;0.50;;
14754;SDS011;7469;50.906;6.952;2023-04-01T00:58:07;0.20;;;0.20;;
14754;SDS011;7469;50.906;6.952;2023-04-01T01:00:41;0.40;;;0.40;;
14754;SDS011;7469;50.906;6.952;2023-04-01T01:03:10;1.40;;;0.37;;
14754;SDS011;7469;50.906;6.952;2023-04-01T01:05:46;1.03;;;0.37;;
14754;SDS011;7469;50.906;6.952;2023-04-01T01:08:37;1.53;;;0.20;;
14754;SDS011;7469;50.906;6.952;2023-04-01T01:11:15;0.57;;;0.20;;
14754;SDS011;7469;50.906;6.952;2023-04-01T01:13:52;0.30;;;0.30;;
14754;SDS011;7469;50.906;6.952;2023-04-01T01:16:26;2.90;;;0.30;;
14754;SDS011;7469;50.906;6.952;2023-04-01T01:18:58;1.03;;;0.30;;
14754;SDS011;7469;50.906;6.952;2023-04-01T01:24:53;0.47;;;0.40;;
14754;SDS011;7469;50.906;6.952;2023-04-01T01:27:29;0.37;;;0.17;;
14754;SDS011;7469;50.906;6.952;2023-04-01T01:30:14;0.40;;;0.30;;
14754;SDS011;7469;50.906;6.952;2023-04-01T01:32:55;0.40;;;0.20;;
14754;SDS011;7469;50.906;6.952;2023-04-01T01:35:42;0.57;;;0.10;;
14754;SDS011;7469;50.906;6.952;2023-04-01T01:38:14;0.30;;;0.30;;
14754;SDS011;7469;50.906;6.952;2023-04-01T01:40:44;0.30;;;0.20;;
14754;SDS011;7469;50.906;6.952;2023-04-01T01:43:18;0.60;;;0.23;;
14754;SDS011;7469;50.906;6.952;2023-04-01T01:45:50;0.10;;;0.10;;
14754;SDS011;7469;50.906;6.952;2023-04-01T01:48:21;0.93;;;0.37;;
14754;SDS011;7469;50.906;6.952;2023-04-01T01:50:53;0.47;;;0.40;;
14754;SDS011;7469;50.906;6.952;2023-04-01T01:53:21;0.13;;;0.13;;
14754;SDS011;7469;50.906;6.952;2023-04-01T01:55:49;0.73;;;0.30;;
14754;SDS011;7469;50.906;6.952;2023-04-01T02:00:50;0.37;;;0.30;;
14754;SDS011;7469;50.906;6.952;2023-04-01T02:03:21;1.40;;;0.27;;
14754;SDS011;7469;50.906;6.952;2023-04-01T02:05:53;0.50;;;0.30;;
14754;SDS011;7469;50.906;6.952;2023-04-01T02:08:24;0.30;;;0.30;;
14754;SDS011;7469;50.906;6.952;2023-04-01T02:10:56;1.93;;;0.30;;
14754;SDS011;7469;50.906;6.952;2023-04-01T02:13:27;1.03;;;0.40;;
14754;SDS011;7469;50.906;6.952;2023-04-01T02:16:03;1.30;;;0.60;;
14754;SDS011;7469;50.906;6.952;2023-04-01T02:18:36;0.10;;;0.10;;
14754;SDS011;7469;50.906;6.952;2023-04-01T02:21:07;0.57;;;0.40;;
14754;SDS011;7469;50.906;6.952;2023-04-01T02:23:36;0.30;;;0.30;;
14754;SDS011;7469;50.906;6.952;2023-04-01T02:26:05;1.17;;;0.10;;
14754;SDS011;7469;50.906;6.952;2023-04-01T02:28:34;0.83;;;0.30;;
14754;SDS011;7469;50.906;6.952;2023-04-01T02:31:06;0.23;;;0.20;;
14754;SDS011;7469;50.906;6.952;2023-04-01T02:33:36;0.20;;;0.13;;
14754;SDS011;7469;50.906;6.952;2023-04-01T02:36:07;0.30;;;0.30;;
14754;SDS011;7469;50.906;6.952;2023-04-01T02:38:39;0.60;;;0.13;;
14754;SDS011;7469;50.906;6.952;2023-04-01T02:41:08;0.40;;;0.20;;
14754;SDS011;7469;50.906;6.952;2023-04-01T02:43:35;0.10;;;0.10;;
14754;SDS011;7469;50.906;6.952;2023-04-01T02:46:03;1.07;;;0.10;;
14754;SDS011;7469;50.906;6.952;2023-04-01T02:48:31;1.13;;;0.30;;
14754;SDS011;7469;50.906;6.952;2023-04-01T02:51:00;1.23;;;0.40;;
14754;SDS011;7469;50.906;6.952;2023-04-01T02:53:30;0.77;;;0.30;;
14754;SDS011;7469;50.906;6.952;2023-04-01T02:55:57;0.43;;;0.27;;
14754;SDS011;7469;50.906;6.952;2023-04-01T02:58:25;0.30;;;0.30;;
14754;SDS011;7469;50.906;6.952;2023-04-01T03:00:53;0.57;;;0.10;;
14754;SDS011;7469;50.906;6.952;2023-04-01T03:03:21;1.70;;;0.20;;
14754;SDS011;7469;50.906;6.952;2023-04-01T03:05:49;2.90;;;0.50;;
14754;SDS011;7469;50.906;6.952;2023-04-01T03:08:17;1.03;;;0.37;;
14754;SDS011;7469;50.906;6.952;2023-04-01T03:10:53;0.20;;;0.20;;
14754;SDS011;7469;50.906;6.952;2023-04-01T03:13:21;1.07;;;0.30;;
14754;SDS011;7469;50.906;6.952;2023-04-01T03:15:49;0.20;;;0.20;;
14754;SDS011;7469;50.906;6.952;2023-04-01T03:18:17;0.20;;;0.20;;
14754;SDS011;7469;50.906;6.952;2023-04-01T03:20:45;0.30;;;0.30;;
14754;SDS011;7469;50.906;6.952;2023-04-01T03:23:14;0.23;;;0.10;;
14754;SDS011;7469;50.906;6.952;2023-04-01T03:25:43;0.97;;;0.27;;
14754;SDS011;7469;50.906;6.952;2023-04-01T03:28:12;0.63;;;0.30;;
14754;SDS011;7469;50.906;6.952;2023-04-01T03:30:40;1.67;;;0.20;;
14754;SDS011;7469;50.906;6.952;2023-04-01T03:33:08;0.20;;;0.20;;
14754;SDS011;7469;50.906;6.952;2023-04-01T03:35:36;0.83;;;0.20;;
14754;SDS011;7469;50.906;6.952;2023-04-01T03:38:04;2.27;;;0.20;;
14754;SDS011;7469;50.906;6.952;2023-04-01T03:40:32;1.30;;;0.47;;
14754;SDS011;7469;50.906;6.952;2023-04-01T03:43:03;0.57;;;0.10;;
14754;SDS011;7469;50.906;6.952;2023-04-01T03:45:36;0.50;;;0.20;;
14754;SDS011;7469;50.906;6.952;2023-04-01T03:48:04;0.10;;;0.10;;
14754;SDS011;7469;50.906;6.952;2023-04-01T03:50:32;0.10;;;0.03;;
14754;SDS011;7469;50.906;6.952;2023-04-01T03:53:02;0.20;;;0.20;;
14754;SDS011;7469;50.906;6.952;2023-04-01T03:55:30;0.20;;;0.10;;
14754;SDS011;7469;50.906;6.952;2023-04-01T03:57:59;0.20;;;0.20;;
14754;SDS011;7469;50.906;6.952;2023-04-01T04:00:28;0.10;;;0.10;;
14754;SDS011;7469;50.906;6.952;2023-04-01T04:02:58;0.30;;;0.30;;
14754;SDS011;7469;50.906;6.952;2023-04-01T04:05:27;0.50;;;0.20;;
14754;SDS011;7469;50.906;6.952;2023-04-01T04:07:55;0.20;;;0.20;;
14754;SDS011;7469;50.906;6.952;2023-04-01T04:10:23;0.47;;;0.20;;
14754;SDS011;7469;50.906;6.952;2023-04-01T04:12:51;0.10;;;0.10;;
14754;SDS011;7469;50.906;6.952;2023-04-01T04:15:19;0.33;;;0.20;;
14754;SDS011;7469;50.906;6.952;2023-04-01T04:17:47;0.10;;;0.10;;
14754;SDS011;7469;50.906;6.952;2023-04-01T04:20:17;0.73;;;0.23;;
14754;SDS011;7469;50.906;6.952;2023-04-01T04:22:45;2.13;;;0.30;;
14754;SDS011;7469;50.906;6.952;2023-04-01T04:25:13;0.33;;;0.27;;
14754;SDS011;7469;50.906;6.952;2023-04-01T04:27:43;0.60;;;0.27;;
14754;SDS011;7469;50.906;6.952;2023-04-01T04:30:11;0.53;;;0.30;;
14754;SDS011;7469;50.906;6.952;2023-04-01T04:32:41;1.10;;;0.13;;
14754;SDS011;7469;50.906;6.952;2023-04-01T04:35:09;0.10;;;0.10;;
14754;SDS011;7469;50.906;6.952;2023-04-01T04:37:38;0.20;;;0.10;;
14754;SDS011;7469;50.906;6.952;2023-04-01T04:40:07;0.00;;;0.00;;
14754;SDS011;7469;50.906;6.952;2023-04-01T04:42:35;0.10;;;0.10;;
14754;SDS011;7469;50.906;6.952;2023-04-01T04:45:04;0.37;;;0.10;;
14754;SDS011;7469;50.906;6.952;2023-04-01T04:47:32;0.10;;;0.10;;
14754;SDS011;7469;50.906;6.952;2023-04-01T04:50:00;0.67;;;0.40;;
14754;SDS011;7469;50.906;6.952;2023-04-01T04:52:28;0.20;;;0.20;;
14754;SDS011;7469;50.906;6.952;2023-04-01T04:54:57;0.10;;;0.10;;
14754;SDS011;7469;50.906;6.952;2023-04-01T04:57:26;0.10;;;0.10;;
14754;SDS011;7469;50.906;6.952;2023-04-01T04:59:55;0.10;;;0.10;;
14754;SDS011;7469;50.906;6.952;2023-04-01T05:02:24;0.20;;;0.20;;
14754;SDS011;7469;50.906;6.952;2023-04-01T05:04:52;0.10;;;0.10;;
14754;SDS011;7469;50.906;6.952;2023-04-01T05:07:19;0.33;;;0.20;;
14754;SDS011;7469;50.906;6.952;2023-04-01T05:09:47;0.20;;;0.20;;
14754;SDS011;7469;50.906;6.952;2023-04-01T05:12:17;0.50;;;0.20;;
14754;SDS011;7469;50.906;6.952;2023-04-01T05:14:45;0.30;;;0.30;;
14754;SDS011;7469;50.906;6.952;2023-04-01T05:17:13;1.10;;;0.60;;
14754;SDS011;7469;50.906;6.952;2023-04-01T05:19:41;0.93;;;0.60;;
14754;SDS011;7469;50.906;6.952;2023-04-01T05:22:09;1.33;;;0.80;;
14754;SDS011;7469;50.906;6.952;2023-04-01T05:24:37;1.20;;;0.70;;
14754;SDS011;7469;50.906;6.952;2023-04-01T05:27:05;1.87;;;0.63;;
14754;SDS011;7469;50.906;6.952;2023-04-01T05:29:34;0.50;;;0.50;;
14754;SDS011;7469;50.906;6.952;2023-04-01T05:32:02;1.33;;;0.70;;
14754;SDS011;7469;50.906;6.952;2023-04-01T05:34:30;3.27;;;0.47;;
14754;SDS011;7469;50.906;6.952;2023-04-01T05:36:58;1.10;;;0.50;;
14754;SDS011;7469;50.906;6.952;2023-04-01T05:39:26;0.70;;;0.33;;
14754;SDS011;7469;50.906;6.952;2023-04-01T05:41:54;0.93;;;0.70;;
14754;SDS011;7469;50.906;6.952;2023-04-01T05:44:22;1.77;;;0.60;;
14754;SDS011;7469;50.906;6.952;2023-04-01T05:46:52;0.50;;;0.50;;
14754;SDS011;7469;50.906;6.952;2023-04-01T05:49:20;0.57;;;0.50;;
14754;SDS011;7469;50.906;6.952;2023-04-01T05:51:48;1.27;;;0.60;;
14754;SDS011;7469;50.906;6.952;2023-04-01T05:54:15;1.13;;;0.67;;
14754;SDS011;7469;50.906;6.952;2023-04-01T05:56:44;0.60;;;0.60;;
14754;SDS011;7469;50.906;6.952;2023-04-01T05:59:14;0.50;;;0.50;;
14754;SDS011;7469;50.906;6.952;2023-04-01T06:01:42;1.53;;;0.70;;
14754;SDS011;7469;50.906;6.952;2023-04-01T06:04:13;0.70;;;0.70;;
14754;SDS011;7469;50.906;6.952;2023-04-01T06:06:42;3.67;;;0.90;;
14754;SDS011;7469;50.906;6.952;2023-04-01T06:09:12;3.60;;;1.10;;
14754;SDS011;7469;50.906;6.952;2023-04-01T06:11:46;1.20;;;0.97;;
14754;SDS011;7469;50.906;6.952;2023-04-01T06:14:27;1.63;;;1.00;;
14754;SDS011;7469;50.906;6.952;2023-04-01T06:17:07;1.53;;;0.77;;
14754;SDS011;7469;50.906;6.952;2023-04-01T06:19:52;0.60;;;0.60;;
14754;SDS011;7469;50.906;6.952;2023-04-01T06:22:37;0.80;;;0.70;;
14754;SDS011;7469;50.906;6.952;2023-04-01T06:25:23;0.40;;;0.30;;
14754;SDS011;7469;50.906;6.952;2023-04-01T06:28:01;0.93;;;0.70;;
14754;SDS011;7469;50.906;6.952;2023-04-01T06:31:03;0.50;;;0.50;;
14754;SDS011;7469;50.906;6.952;2023-04-01T06:33:42;0.60;;;0.60;;
14754;SDS011;7469;50.906;6.952;2023-04-01T06:36:24;1.20;;;0.53;;
14754;SDS011;7469;50.906;6.952;2023-04-01T06:39:13;1.00;;;0.90;;
14754;SDS011;7469;50.906;6.952;2023-04-01T06:42:18;0.63;;;0.63;;
14754;SDS011;7469;50.906;6.952;2023-04-01T06:45:01;0.73;;;0.60;;
14754;SDS011;7469;50.906;6.952;2023-04-01T06:47:41;1.30;;;1.00;;
14754;SDS011;7469;50.906;6.952;2023-04-01T06:50:22;0.90;;;0.90;;
14754;SDS011;7469;50.906;6.952;2023-04-01T06:52:56;0.83;;;0.83;;
14754;SDS011;7469;50.906;6.952;2023-04-01T06:55:32;0.80;;;0.80;;
14754;SDS011;7469;50.906;6.952;2023-04-01T06:58:10;0.67;;;0.60;;
14754;SDS011;7469;50.906;6.952;2023-04-01T07:00:46;1.13;;;0.80;;
14754;SDS011;7469;50.906;6.952;2023-04-01T07:03:19;1.70;;;1.10;;
14754;SDS011;7469;50.906;6.952;2023-04-01T07:05:50;3.20;;;1.20;;
14754;SDS011;7469;50.906;6.952;2023-04-01T07:08:21;1.67;;;1.20;;
14754;SDS011;7469;50.906;6.952;2023-04-01T07:10:52;1.03;;;0.80;;
14754;SDS011;7469;50.906;6.952;2023-04-01T07:13:24;2.50;;;0.93;;
14754;SDS011;7469;50.906;6.952;2023-04-01T07:15:59;1.17;;;0.90;;
14754;SDS011;7469;50.906;6.952;2023-04-01T07:18:34;0.70;;;0.70;;
14754;SDS011;7469;50.906;6.952;2023-04-01T07:21:09;0.73;;;0.73;;
14754;SDS011;7469;50.906;6.952;2023-04-01T07:23:45;0.50;;;0.50;;
14754;SDS011;7469;50.906;6.952;2023-04-01T07:26:15;0.60;;;0.60;;
14754;SDS011;7469;50.906;6.952;2023-04-01T07:28:48;1.20;;;0.67;;
14754;SDS011;7469;50.906;6.952;2023-04-01T07:31:25;1.07;;;0.70;;
14754;SDS011;7469;50.906;6.952;2023-04-01T07:34:05;3.03;;;0.70;;
14754;SDS011;7469;50.906;6.952;2023-04-01T07:36:38;1.13;;;0.70;;
14754;SDS011;7469;50.906;6.952;2023-04-01T07:39:15;0.37;;;0.37;;
14754;SDS011;7469;50.906;6.952;2023-04-01T07:41:55;1.10;;;0.70;;
14754;SDS011;7469;50.906;6.952;2023-04-01T07:44:31;1.17;;;0.60;;
14754;SDS011;7469;50.906;6.952;2023-04-01T07:47:10;1.23;;;0.80;;
14754;SDS011;7469;50.906;6.952;2023-04-01T07:49:50;0.60;;;0.60;;
14754;SDS011;7469;50.906;6.952;2023-04-01T07:52:27;0.63;;;0.50;;
14754;SDS011;7469;50.906;6.952;2023-04-01T07:55:04;0.40;;;0.40;;
14754;SDS011;7469;50.906;6.952;2023-04-01T07:57:37;1.47;;;0.70;;
14754;SDS011;7469;50.906;6.952;2023-04-01T08:00:12;0.83;;;0.50;;
14754;SDS011;7469;50.906;6.952;2023-04-01T08:02:52;1.37;;;0.53;;
14754;SDS011;7469;50.906;6.952;2023-04-01T08:05:32;0.47;;;0.47;;
14754;SDS011;7469;50.906;6.952;2023-04-01T08:08:11;0.77;;;0.60;;
14754;SDS011;7469;50.906;6.952;2023-04-01T08:10:49;0.53;;;0.23;;
14754;SDS011;7469;50.906;6.952;2023-04-01T08:13:22;1.20;;;0.37;;
14754;SDS011;7469;50.906;6.952;2023-04-01T08:15:58;0.63;;;0.57;;
14754;SDS011;7469;50.906;6.952;2023-04-01T08:18:38;1.07;;;0.57;;
14754;SDS011;7469;50.906;6.952;2023-04-01T08:21:12;0.80;;;0.63;;
14754;SDS011;7469;50.906;6.952;2023-04-01T08:23:47;1.60;;;0.60;;
14754;SDS011;7469;50.906;6.952;2023-04-01T08:26:22;0.53;;;0.40;;
14754;SDS011;7469;50.906;6.952;2023-04-01T08:28:59;1.57;;;0.33;;
14754;SDS011;7469;50.906;6.952;2023-04-01T08:31:31;1.13;;;0.60;;
14754;SDS011;7469;50.906;6.952;2023-04-01T08:34:07;2.03;;;0.50;;
14754;SDS011;7469;50.906;6.952;2023-04-01T08:36:41;1.50;;;0.67;;
14754;SDS011;7469;50.906;6.952;2023-04-01T08:39:15;1.83;;;0.53;;
14754;SDS011;7469;50.906;6.952;2023-04-01T08:41:56;0.83;;;0.40;;
14754;SDS011;7469;50.906;6.952;2023-04-01T08:44:44;1.67;;;0.90;;
14754;SDS011;7469;50.906;6.952;2023-04-01T08:47:42;1.00;;;0.80;;
14754;SDS011;7469;50.906;6.952;2023-04-01T08:50:23;0.60;;;0.60;;
14754;SDS011;7469;50.906;6.952;2023-04-01T08:53:06;0.63;;;0.50;;
14754;SDS011;7469;50.906;6.952;2023-04-01T08:55:47;1.87;;;0.40;;
14754;SDS011;7469;50.906;6.952;2023-04-01T09:01:44;0.50;;;0.50;;
14754;SDS011;7469;50.906;6.952;2023-04-01T09:04:32;0.40;;;0.40;;
14754;SDS011;7469;50.906;6.952;2023-04-01T09:07:19;0.40;;;0.40;;
14754;SDS011;7469;50.906;6.952;2023-04-01T09:13:12;0.40;;;0.40;;
14754;SDS011;7469;50.906;6.952;2023-04-01T09:16:02;2.13;;;0.47;;
14754;SDS011;7469;50.906;6.952;2023-04-01T09:18:53;0.40;;;0.40;;
14754;SDS011;7469;50.906;6.952;2023-04-01T09:21:46;0.73;;;0.53;;
14754;SDS011;7469;50.906;6.952;2023-04-01T09:24:30;0.80;;;0.80;;
14754;SDS011;7469;50.906;6.952;2023-04-01T09:27:17;0.50;;;0.50;;
14754;SDS011;7469;50.906;6.952;2023-04-01T09:30:13;0.50;;;0.50;;
14754;SDS011;7469;50.906;6.952;2023-04-01T09:33:04;0.57;;;0.57;;
14754;SDS011;7469;50.906;6.952;2023-04-01T09:35:58;1.83;;;0.70;;
14754;SDS011;7469;50.906;6.952;2023-04-01T09:38:37;0.43;;;0.40;;
14754;SDS011;7469;50.906;6.952;2023-04-01T09:41:17;0.90;;;0.60;;
14754;SDS011;7469;50.906;6.952;2023-04-01T09:44:03;0.40;;;0.40;;
14754;SDS011;7469;50.906;6.952;2023-04-01T09:46:42;0.53;;;0.43;;
14754;SDS011;7469;50.906;6.952;2023-04-01T09:49:30;2.60;;;0.60;;
14754;SDS011;7469;50.906;6.952;2023-04-01T09:52:20;0.33;;;0.33;;
14754;SDS011;7469;50.906;6.952;2023-04-01T09:55:00;1.73;;;0.53;;
14754;SDS011;7469;50.906;6.952;2023-04-01T09:57:51;0.30;;;0.30;;
14754;SDS011;7469;50.906;6.952;2023-04-01T10:04:12;0.63;;;0.40;;
14754;SDS011;7469;50.906;6.952;2023-04-01T10:07:06;0.40;;;0.40;;
14754;SDS011;7469;50.906;6.952;2023-04-01T10:13:16;0.60;;;0.50;;
14754;SDS011;7469;50.906;6.952;2023-04-01T10:16:33;0.40;;;0.40;;
14754;SDS011;7469;50.906;6.952;2023-04-01T10:19:31;0.60;;;0.60;;
14754;SDS011;7469;50.906;6.952;2023-04-01T10:22:25;0.60;;;0.60;;
14754;SDS011;7469;50.906;6.952;2023-04-01T10:31:06;0.50;;;0.50;;
14754;SDS011;7469;50.906;6.952;2023-04-01T10:34:09;1.50;;;0.60;;
14754;SDS011;7469;50.906;6.952;2023-04-01T10:37:00;0.63;;;0.63;;
14754;SDS011;7469;50.906;6.952;2023-04-01T10:42:40;0.80;;;0.70;;
14754;SDS011;7469;50.906;6.952;2023-04-01T10:48:53;0.70;;;0.70;;
14754;SDS011;7469;50.906;6.952;2023-04-01T10:51:52;0.57;;;0.50;;
14754;SDS011;7469;50.906;6.952;2023-04-01T10:54:44;0.50;;;0.50;;
14754;SDS011;7469;50.906;6.952;2023-04-01T10:57:23;0.67;;;0.67;;
14754;SDS011;7469;50.906;6.952;2023-04-01T11:00:18;0.90;;;0.60;;
14754;SDS011;7469;50.906;6.952;2023-04-01T11:06:38;1.17;;;0.70;;
14754;SDS011;7469;50.906;6.952;2023-04-01T11:09:54;0.70;;;0.70;;
14754;SDS011;7469;50.906;6.952;2023-04-01T11:16:09;0.50;;;0.50;;
14754;SDS011;7469;50.906;6.952;2023-04-01T11:19:06;0.80;;;0.80;;
14754;SDS011;7469;50.906;6.952;2023-04-01T11:22:14;0.60;;;0.60;;
14754;SDS011;7469;50.906;6.952;2023-04-01T11:27:51;0.73;;;0.70;;
14754;SDS011;7469;50.906;6.952;2023-04-01T11:30:49;0.50;;;0.50;;
14754;SDS011;7469;50.906;6.952;2023-04-01T11:33:30;1.43;;;0.50;;
14754;SDS011;7469;50.906;6.952;2023-04-01T11:36:10;0.60;;;0.40;;
14754;SDS011;7469;50.906;6.952;2023-04-01T11:38:54;1.00;;;0.60;;
14754;SDS011;7469;50.906;6.952;2023-04-01T11:41:32;0.73;;;0.73;;
14754;SDS011;7469;50.906;6.952;2023-04-01T11:44:11;0.50;;;0.50;;
14754;SDS011;7469;50.906;6.952;2023-04-01T11:46:51;0.60;;;0.60;;
14754;SDS011;7469;50.906;6.952;2023-04-01T11:49:33;0.53;;;0.53;;
14754;SDS011;7469;50.906;6.952;2023-04-01T11:52:26;0.60;;;0.60;;
14754;SDS011;7469;50.906;6.952;2023-04-01T11:55:12;0.73;;;0.57;;
14754;SDS011;7469;50.906;6.952;2023-04-01T11:57:50;0.60;;;0.60;;
14754;SDS011;7469;50.906;6.952;2023-04-01T12:00:34;0.77;;;0.70;;
14754;SDS011;7469;50.906;6.952;2023-04-01T12:03:29;0.70;;;0.60;;
14754;SDS011;7469;50.906;6.952;2023-04-01T12:06:15;0.70;;;0.70;;
14754;SDS011;7469;50.906;6.952;2023-04-01T12:08:52;0.50;;;0.50;;
14754;SDS011;7469;50.906;6.952;2023-04-01T12:11:29;0.70;;;0.70;;
14754;SDS011;7469;50.906;6.952;2023-04-01T12:14:08;0.70;;;0.70;;
14754;SDS011;7469;50.906;6.952;2023-04-01T12:16:50;0.70;;;0.70;;
14754;SDS011;7469;50.906;6.952;2023-04-01T12:19:26;0.67;;;0.67;;
14754;SDS011;7469;50.906;6.952;2023-04-01T12:22:12;0.80;;;0.63;;
14754;SDS011;7469;50.906;6.952;2023-04-01T12:24:54;0.67;;;0.67;;
14754;SDS011;7469;50.906;6.952;2023-04-01T12:27:44;0.47;;;0.47;;
14754;SDS011;7469;50.906;6.952;2023-04-01T12:36:19;0.40;;;0.40;;
14754;SDS011;7469;50.906;6.952;2023-04-01T12:39:07;0.40;;;0.40;;
14754;SDS011;7469;50.906;6.952;2023-04-01T12:41:51;0.33;;;0.33;;
14754;SDS011;7469;50.906;6.952;2023-04-01T12:44:31;0.97;;;0.50;;
14754;SDS011;7469;50.906;6.952;2023-04-01T12:47:16;1.00;;;0.50;;
14754;SDS011;7469;50.906;6.952;2023-04-01T12:50:23;0.47;;;0.47;;
14754;SDS011;7469;50.906;6.952;2023-04-01T12:53:01;0.50;;;0.50;;
14754;SDS011;7469;50.906;6.952;2023-04-01T12:55:44;0.80;;;0.80;;
14754;SDS011;7469;50.906;6.952;2023-04-01T13:01:27;0.33;;;0.33;;
14754;SDS011;7469;50.906;6.952;2023-04-01T13:07:22;0.70;;;0.70;;
14754;SDS011;7469;50.906;6.952;2023-04-01T13:10:13;0.80;;;0.43;;
14754;SDS011;7469;50.906;6.952;2023-04-01T13:15:54;0.70;;;0.70;;
14754;SDS011;7469;50.906;6.952;2023-04-01T13:18:33;0.53;;;0.53;;
14754;SDS011;7469;50.906;6.952;2023-04-01T13:21:11;0.70;;;0.70;;
14754;SDS011;7469;50.906;6.952;2023-04-01T13:23:51;0.60;;;0.60;;
14754;SDS011;7469;50.906;6.952;2023-04-01T13:26:28;1.27;;;0.90;;
14754;SDS011;7469;50.906;6.952;2023-04-01T13:29:04;0.50;;;0.50;;
14754;SDS011;7469;50.906;6.952;2023-04-01T13:32:00;0.50;;;0.50;;
14754;SDS011;7469;50.906;6.952;2023-04-01T13:34:42;1.50;;;1.40;;
14754;SDS011;7469;50.906;6.952;2023-04-01T13:37:27;0.60;;;0.50;;
14754;SDS011;7469;50.906;6.952;2023-04-01T13:40:14;0.70;;;0.70;;
14754;SDS011;7469;50.906;6.952;2023-04-01T13:43:28;0.77;;;0.57;;
14754;SDS011;7469;50.906;6.952;2023-04-01T13:46:16;0.90;;;0.90;;
14754;SDS011;7469;50.906;6.952;2023-04-01T13:49:03;0.87;;;0.87;;
14754;SDS011;7469;50.906;6.952;2023-04-01T13:51:54;0.93;;;0.90;;
14754;SDS011;7469;50.906;6.952;2023-04-01T13:57:45;0.90;;;0.90;;
14754;SDS011;7469;50.906;6.952;2023-04-01T14:00:33;1.70;;;0.93;;
14754;SDS011;7469;50.906;6.952;2023-04-01T14:03:14;0.77;;;0.77;;
14754;SDS011;7469;50.906;6.952;2023-04-01T14:06:02;1.17;;;1.10;;
14754;SDS011;7469;50.906;6.952;2023-04-01T14:08:45;1.13;;;1.10;;
14754;SDS011;7469;50.906;6.952;2023-04-01T14:11:39;1.10;;;1.00;;
14754;SDS011;7469;50.906;6.952;2023-04-01T14:14:18;0.90;;;0.90;;
14754;SDS011;7469;50.906;6.952;2023-04-01T14:20:00;0.90;;;0.90;;
14754;SDS011;7469;50.906;6.952;2023-04-01T14:22:46;0.80;;;0.80;;
14754;SDS011;7469;50.906;6.952;2023-04-01T14:25:35;1.00;;;1.00;;
14754;SDS011;7469;50.906;6.952;2023-04-01T14:28:16;0.90;;;0.90;;
14754;SDS011;7469;50.906;6.952;2023-04-01T14:30:57;1.00;;;1.00;;
14754;SDS011;7469;50.906;6.952;2023-04-01T14:33:46;0.70;;;0.70;;
14754;SDS011;7469;50.906;6.952;2023-04-01T14:36:30;0.80;;;0.80;;
14754;SDS011;7469;50.906;6.952;2023-04-01T14:42:06;0.90;;;0.90;;
14754;SDS011;7469;50.906;6.952;2023-04-01T14:45:05;0.70;;;0.60;;
14754;SDS011;7469;50.906;6.952;2023-04-01T14:47:53;0.80;;;0.80;;
14754;SDS011;7469;50.906;6.952;2023-04-01T14:50:24;1.40;;;0.77;;
14754;SDS011;7469;50.906;6.952;2023-04-01T14:52:56;1.10;;;1.00;;
14754;SDS011;7469;50.906;6.952;2023-04-01T14:55:28;1.10;;;0.60;;
14754;SDS011;7469;50.906;6.952;2023-04-01T14:58:07;0.83;;;0.80;;
14754;SDS011;7469;50.906;6.952;2023-04-01T15:00:41;1.30;;;0.97;;
14754;SDS011;7469;50.906;6.952;2023-04-01T15:03:20;0.90;;;0.90;;
14754;SDS011;7469;50.906;6.952;2023-04-01T15:05:55;1.00;;;0.80;;
14754;SDS011;7469;50.906;6.952;2023-04-01T15:08:28;0.60;;;0.60;;
14754;SDS011;7469;50.906;6.952;2023-04-01T15:11:14;1.00;;;0.90;;
14754;SDS011;7469;50.906;6.952;2023-04-01T15:13:58;1.47;;;0.87;;
14754;SDS011;7469;50.906;6.952;2023-04-01T15:16:47;0.90;;;0.87;;
14754;SDS011;7469;50.906;6.952;2023-04-01T15:19:24;0.93;;;0.70;;
14754;SDS011;7469;50.906;6.952;2023-04-01T15:22:05;0.70;;;0.70;;
14754;SDS011;7469;50.906;6.952;2023-04-01T15:24:47;0.80;;;0.80;;
14754;SDS011;7469;50.906;6.952;2023-04-01T15:27:27;1.17;;;1.07;;
14754;SDS011;7469;50.906;6.952;2023-04-01T15:30:19;1.13;;;1.07;;
14754;SDS011;7469;50.906;6.952;2023-04-01T15:32:55;1.57;;;0.97;;
14754;SDS011;7469;50.906;6.952;2023-04-01T15:35:34;1.10;;;1.10;;
14754;SDS011;7469;50.906;6.952;2023-04-01T15:38:09;1.40;;;1.30;;
14754;SDS011;7469;50.906;6.952;2023-04-01T15:40:47;1.20;;;1.10;;
14754;SDS011;7469;50.906;6.952;2023-04-01T15:43:24;1.20;;;1.10;;
14754;SDS011;7469;50.906;6.952;2023-04-01T15:46:12;2.20;;;1.40;;
14754;SDS011;7469;50.906;6.952;2023-04-01T15:48:50;1.40;;;1.30;;
14754;SDS011;7469;50.906;6.952;2023-04-01T15:51:31;1.30;;;1.20;;
14754;SDS011;7469;50.906;6.952;2023-04-01T15:57:28;2.13;;;1.20;;
14754;SDS011;7469;50.906;6.952;2023-04-01T16:00:10;1.50;;;1.40;;
14754;SDS011;7469;50.906;6.952;2023-04-01T16:03:01;2.13;;;1.70;;
14754;SDS011;7469;50.906;6.952;2023-04-01T16:05:50;1.83;;;1.73;;
14754;SDS011;7469;50.906;6.952;2023-04-01T16:08:36;1.40;;;1.30;;
14754;SDS011;7469;50.906;6.952;2023-04-01T16:11:18;1.63;;;1.53;;
14754;SDS011;7469;50.906;6.952;2023-04-01T16:13:54;1.60;;;1.50;;
14754;SDS011;7469;50.906;6.952;2023-04-01T16:16:32;2.47;;;1.53;;
14754;SDS011;7469;50.906;6.952;2023-04-01T16:22:01;1.70;;;1.60;;
14754;SDS011;7469;50.906;6.952;2023-04-01T16:24:33;1.60;;;1.50;;
14754;SDS011;7469;50.906;6.952;2023-04-01T16:27:08;1.43;;;1.30;;
14754;SDS011;7469;50.906;6.952;2023-04-01T16:29:41;1.10;;;1.10;;
14754;SDS011;7469;50.906;6.952;2023-04-01T16:32:17;1.53;;;1.43;;
14754;SDS011;7469;50.906;6.952;2023-04-01T16:34:58;3.47;;;2.07;;
14754;SDS011;7469;50.906;6.952;2023-04-01T16:37:39;2.30;;;1.80;;
14754;SDS011;7469;50.906;6.952;2023-04-01T16:40:15;2.73;;;1.80;;
14754;SDS011;7469;50.906;6.952;2023-04-01T16:42:53;5.20;;;2.07;;
14754;SDS011;7469;50.906;6.952;2023-04-01T16:45:25;1.50;;;1.40;;
14754;SDS011;7469;50.906;6.952;2023-04-01T16:48:01;2.43;;;1.73;;
14754;SDS011;7469;50.906;6.952;2023-04-01T16:50:41;1.30;;;1.20;;
14754;SDS011;7469;50.906;6.952;2023-04-01T16:53:25;1.50;;;1.40;;
14754;SDS011;7469;50.906;6.952;2023-04-01T16:56:07;1.60;;;1.33;;
14754;SDS011;7469;50.906;6.952;2023-04-01T16:58:40;3.73;;;1.30;;
14754;SDS011;7469;50.906;6.952;2023-04-01T17:01:12;2.33;;;1.60;;
14754;SDS011;7469;50.906;6.952;2023-04-01T17:03:44;1.30;;;1.20;;
14754;SDS011;7469;50.906;6.952;2023-04-01T17:06:19;3.30;;;1.17;;
14754;SDS011;7469;50.906;6.952;2023-04-01T17:09:07;1.30;;;1.20;;
14754;SDS011;7469;50.906;6.952;2023-04-01T17:11:49;1.83;;;1.73;;
14754;SDS011;7469;50.906;6.952;2023-04-01T17:14:25;3.63;;;2.40;;